Time;durP1;ratioP1;P1;durP2;ratioP2;P2;SDS_P1;SDS_P2;PMS_P1;PMS_P2;Temp;Humidity;BMP_temperature;BMP_pressure;BME280_temperature;BME280_humidity;BME280_pressure;Samples;Min_cycle;Max_cycle;Signal;HPM_P1;HPM_P2
2021/10/09 00:01:06;;;;;;;21.80;19.53;;;;;;;13.70;70.21;103223.38;6315945;28;20214;-53
2021/10/09 00:04:27;;;;;;;20.37;18.47;;;;;;;13.82;69.57;103215.69;6318032;28;20528;-52
2021/10/09 00:07:47;;;;;;;23.67;21.27;;;;;;;13.68;69.69;103215.47;6314771;28;20226;-53
2021/10/09 00:11:15;;;;;;;21.60;19.47;;;;;;;13.49;70.38;103219.56;6311732;28;20245;-54
2021/10/09 00:14:37;;;;;;;22.17;19.87;;;;;;;13.47;70.29;103226.47;6315885;28;20191;-51
2021/10/09 00:18:00;;;;;;;20.97;18.90;;;;;;;13.43;69.95;103222.03;6312185;28;20657;-53
2021/10/09 00:21:21;;;;;;;21.10;18.30;;;;;;;13.43;70.24;103223.78;6310181;28;20210;-53
2021/10/09 00:24:42;;;;;;;25.77;21.40;;;;;;;13.45;69.40;103212.47;6313043;28;20191;-50
2021/10/09 00:28:03;;;;;;;23.53;19.10;;;;;;;13.17;70.79;103222.44;6310691;28;20683;-52
2021/10/09 00:31:25;;;;;;;21.90;19.70;;;;;;;13.42;69.29;103216.81;6311538;28;20206;-52
2021/10/09 00:34:46;;;;;;;21.90;19.30;;;;;;;13.40;69.47;103219.38;6316690;28;20191;-51
2021/10/09 00:38:07;;;;;;;21.83;19.30;;;;;;;13.15;69.94;103224.13;6314676;28;20221;-50
2021/10/09 00:41:28;;;;;;;21.00;18.80;;;;;;;13.13;70.13;103225.84;6315198;28;20781;-48
2021/10/09 00:44:49;;;;;;;24.53;21.93;;;;;;;13.16;69.81;103223.31;6302536;28;20202;-47
2021/10/09 00:48:11;;;;;;;22.27;19.97;;;;;;;13.04;70.12;103219.56;6316486;28;20238;-47
2021/10/09 00:51:32;;;;;;;21.47;19.17;;;;;;;13.19;69.38;103218.09;6293302;28;20226;-47
2021/10/09 00:54:55;;;;;;;22.20;19.80;;;;;;;13.19;69.38;103215.50;6299953;28;20232;-52
2021/10/09 00:58:17;;;;;;;21.63;19.37;;;;;;;13.09;69.31;103213.56;6304662;28;20226;-52
2021/10/09 01:01:38;;;;;;;23.73;20.90;;;;;;;13.07;69.48;103215.28;6314000;28;20321;-49
2021/10/09 01:05:01;;;;;;;24.37;21.83;;;;;;;13.13;69.11;103214.50;6315850;28;20190;-50
2021/10/09 01:08:23;;;;;;;24.13;19.60;;;;;;;13.07;69.10;103215.28;6313636;28;20227;-50
2021/10/09 01:11:44;;;;;;;24.77;18.77;;;;;;;13.02;69.12;103216.03;6297169;28;20214;-50
2021/10/09 01:15:19;;;;;;;22.67;20.37;;;;;;;12.94;68.99;103216.75;6300319;28;20207;-54
2021/10/09 01:18:41;;;;;;;26.80;20.17;;;;;;;12.93;69.50;103216.72;6297304;28;20230;-50
2021/10/09 01:22:03;;;;;;;24.73;22.23;;;;;;;12.83;69.42;103214.78;6300610;28;20235;-52
2021/10/09 01:25:24;;;;;;;22.23;19.63;;;;;;;12.54;70.29;103209.84;6295983;28;20255;-49
2021/10/09 01:28:49;;;;;;;26.07;22.37;;;;;;;12.73;69.72;103208.50;6297650;28;20238;-51
2021/10/09 01:32:10;;;;;;;21.17;19.07;;;;;;;12.55;69.82;103214.25;6299086;28;20222;-53
2021/10/09 01:35:32;;;;;;;22.23;19.83;;;;;;;12.46;70.09;103214.91;6315430;28;20211;-53
2021/10/09 01:38:54;;;;;;;25.90;20.63;;;;;;;12.48;70.53;103212.34;6293705;28;20222;-50
2021/10/09 01:42:24;;;;;;;20.73;18.27;;;;;;;12.49;69.94;103208.88;6315361;28;20234;-51
2021/10/09 01:45:47;;;;;;;23.20;19.40;;;;;;;12.35;70.50;103208.59;6298895;28;20190;-53
2021/10/09 01:49:10;;;;;;;22.23;19.83;;;;;;;12.50;69.69;103210.63;6299303;28;20223;-51
2021/10/09 01:52:31;;;;;;;24.23;20.10;;;;;;;12.42;69.74;103207.88;6306426;28;20317;-54
2021/10/09 01:55:56;;;;;;;21.07;18.83;;;;;;;12.14;70.81;103204.66;6306843;28;20290;-54
2021/10/09 01:59:17;;;;;;;21.60;19.30;;;;;;;12.33;70.18;103207.66;6302059;28;20238;-51
2021/10/09 02:02:45;;;;;;;23.47;20.80;;;;;;;12.21;70.28;103213.50;6300052;28;20267;-53
2021/10/09 02:06:07;;;;;;;23.70;21.10;;;;;;;12.21;70.16;103214.41;6305410;28;20469;-53
2021/10/09 02:09:28;;;;;;;24.23;21.70;;;;;;;12.01;70.75;103205.22;6306234;28;20219;-50
2021/10/09 02:12:52;;;;;;;23.00;20.57;;;;;;;11.96;70.45;103212.97;6303525;28;20222;-54
2021/10/09 02:16:23;;;;;;;25.13;21.33;;;;;;;12.12;69.92;103208.09;6304029;28;20273;-54
2021/10/09 02:27:08;;;;;;;23.57;21.10;;;;;;;11.81;70.81;103204.72;6320251;28;20217;-48
2021/10/09 02:30:31;;;;;;;22.07;19.63;;;;;;;12.00;70.05;103204.34;6318428;28;20191;-50
2021/10/09 02:33:52;;;;;;;25.40;19.27;;;;;;;11.95;69.67;103200.72;6301754;28;20219;-48
2021/10/09 02:37:14;;;;;;;24.00;20.27;;;;;;;11.88;70.00;103201.38;6322210;28;20603;-50
2021/10/09 02:40:39;;;;;;;24.43;18.97;;;;;;;11.88;70.13;103197.91;6298688;28;20191;-53
2021/10/09 02:44:00;;;;;;;25.77;22.53;;;;;;;11.74;70.23;103194.97;6317991;28;20287;-52
2021/10/09 02:47:25;;;;;;;23.83;21.43;;;;;;;11.74;70.29;103194.97;6299008;28;20227;-52
2021/10/09 02:50:47;;;;;;;22.80;20.50;;;;;;;11.69;70.18;103196.59;6301267;28;20191;-50
2021/10/09 02:54:11;;;;;;;24.70;22.03;;;;;;;11.73;69.73;103194.09;6302799;28;20493;-50
2021/10/09 02:57:32;;;;;;;28.23;24.50;;;;;;;11.73;69.96;103198.41;6305203;28;20218;-53
2021/10/09 03:00:54;;;;;;;23.57;21.17;;;;;;;11.79;69.68;103193.38;6299900;28;20308;-53
2021/10/09 03:04:17;;;;;;;21.70;19.53;;;;;;;11.63;70.58;103200.81;6305821;28;20485;-52
2021/10/09 03:07:38;;;;;;;21.47;19.23;;;;;;;11.66;69.81;103200.00;6316595;28;20227;-50
2021/10/09 03:11:00;;;;;;;22.43;19.30;;;;;;;11.54;70.21;103197.09;6302175;28;20301;-49
2021/10/09 03:14:23;;;;;;;23.20;20.57;;;;;;;11.32;72.23;103201.78;6316406;28;20222;-51
2021/10/09 03:17:46;;;;;;;25.40;22.20;;;;;;;11.45;71.05;103202.97;6304883;28;20226;-49
2021/10/09 03:21:08;;;;;;;31.00;27.70;;;;;;;11.47;70.71;103206.50;6316764;28;20195;-53
2021/10/09 03:24:30;;;;;;;23.70;21.17;;;;;;;11.52;70.11;103202.28;6302473;28;20219;-54
2021/10/09 03:27:51;;;;;;;21.13;18.93;;;;;;;11.33;70.18;103202.66;6300815;28;20649;-52
2021/10/09 03:31:12;;;;;;;22.10;19.63;;;;;;;11.47;69.11;103205.63;6298103;28;20235;-52
2021/10/09 03:34:33;;;;;;;22.87;19.33;;;;;;;11.34;69.53;103210.53;6305087;28;20203;-51
2021/10/09 03:37:57;;;;;;;26.40;23.60;;;;;;;11.19;69.85;103202.31;6303018;28;20226;-49
2021/10/09 03:41:18;;;;;;;26.40;21.00;;;;;;;11.00;70.79;103208.75;6315553;28;20191;-54
2021/10/09 03:44:44;;;;;;;28.73;23.27;;;;;;;11.23;69.56;103210.25;6297971;28;20204;-51
2021/10/09 03:48:22;;;;;;;22.37;20.17;;;;;;;11.01;70.29;103218.31;6312645;28;20320;-50
2021/10/09 03:55:24;;;;;;;23.57;21.10;;;;;;;11.01;70.00;103220.91;6303394;28;20204;-48
2021/10/09 03:58:46;;;;;;;22.80;20.43;;;;;;;10.80;70.81;103210.81;6300947;28;20226;-50
2021/10/09 04:02:08;;;;;;;35.50;25.63;;;;;;;10.94;69.87;103213.78;6302909;28;20273;-49
2021/10/09 04:05:30;;;;;;;22.00;19.80;;;;;;;10.84;69.98;103207.44;6304482;28;20203;-50
2021/10/09 04:08:51;;;;;;;23.03;20.63;;;;;;;10.84;70.61;103202.22;6299292;28;20226;-51
2021/10/09 04:12:13;;;;;;;23.70;19.80;;;;;;;10.77;70.75;103203.75;6295227;28;20564;-50
2021/10/09 04:15:35;;;;;;;24.73;22.10;;;;;;;10.91;70.09;103209.34;6303351;28;20546;-48
2021/10/09 04:18:56;;;;;;;21.30;18.90;;;;;;;10.91;69.97;103209.34;6299504;28;20234;-51
2021/10/09 04:22:17;;;;;;;21.87;18.97;;;;;;;10.75;69.63;103202.84;6309629;28;20692;-52
2021/10/09 04:25:39;;;;;;;23.07;20.00;;;;;;;10.51;70.88;103202.16;6299823;28;20207;-54
2021/10/09 04:29:01;;;;;;;25.60;19.13;;;;;;;10.62;69.98;103201.63;6300569;28;20234;-50
2021/10/09 04:32:23;;;;;;;23.23;20.47;;;;;;;10.54;70.02;103197.03;6294640;28;20871;-51
2021/10/09 04:35:45;;;;;;;21.83;19.63;;;;;;;10.50;70.34;103200.38;6296167;28;20234;-52
2021/10/09 04:39:06;;;;;;;22.80;20.40;;;;;;;10.55;70.17;103201.41;6316052;28;20576;-52
2021/10/09 04:42:29;;;;;;;27.23;21.67;;;;;;;10.58;70.32;103204.06;6299146;28;20234;-51
2021/10/09 04:45:51;;;;;;;28.30;21.97;;;;;;;10.61;69.54;103204.19;6313714;28;20187;-53
2021/10/09 04:49:12;;;;;;;23.60;21.03;;;;;;;10.52;70.09;103203.91;6296751;28;20211;-49
2021/10/09 04:52:34;;;;;;;20.37;18.27;;;;;;;10.35;69.69;103208.63;6298910;28;20226;-53
2021/10/09 04:55:55;;;;;;;25.43;22.77;;;;;;;10.43;69.58;103205.41;6298761;28;20203;-53
2021/10/09 04:59:17;;;;;;;22.83;20.23;;;;;;;10.39;69.90;103203.56;6300707;28;20267;-52
2021/10/09 05:02:41;;;;;;;22.97;20.47;;;;;;;10.19;70.90;103209.84;6295509;28;20250;-51
2021/10/09 05:06:02;;;;;;;24.13;20.43;;;;;;;10.19;70.66;103218.53;6301676;28;20270;-55
2021/10/09 05:09:22;;;;;;;24.60;18.37;;;;;;;10.13;70.91;103220.06;6293537;28;20290;-54
2021/10/09 05:12:44;;;;;;;22.20;20.00;;;;;;;10.30;70.27;103218.91;6300454;28;20237;-51
2021/10/09 05:16:05;;;;;;;26.47;20.73;;;;;;;10.04;70.78;103229.38;6298845;28;20226;-51
2021/10/09 05:19:28;;;;;;;19.80;17.73;;;;;;;10.05;70.77;103223.31;6313484;28;20218;-49
2021/10/09 05:22:49;;;;;;;22.73;19.73;;;;;;;10.17;70.12;103224.53;6300355;28;20305;-50
2021/10/09 05:26:12;;;;;;;26.83;20.70;;;;;;;10.28;69.46;103223.16;6300615;28;20644;-50
2021/10/09 05:29:34;;;;;;;21.57;19.50;;;;;;;10.19;69.46;103225.47;6297822;28;20196;-46
2021/10/09 05:36:32;;;;;;;21.50;18.83;;;;;;;10.30;69.02;103231.94;6300719;28;20234;-52
2021/10/09 05:39:54;;;;;;;25.83;19.77;;;;;;;10.23;69.18;103232.53;6293868;28;20195;-47
2021/10/09 05:43:16;;;;;;;24.40;21.47;;;;;;;10.22;69.15;103236.00;6299894;28;20261;-50
2021/10/09 05:46:37;;;;;;;20.30;18.13;;;;;;;10.11;69.04;103237.38;6294107;28;20234;-51
2021/10/09 05:50:02;;;;;;;25.17;20.17;;;;;;;10.10;69.23;103240.78;6296563;28;20517;-52
2021/10/09 05:53:43;;;;;;;20.57;16.53;;;;;;;10.04;68.96;103234.56;6294544;28;20223;-50
2021/10/09 05:57:10;;;;;;;19.07;17.07;;;;;;;10.13;68.74;103246.97;6299156;28;20596;-52
2021/10/09 06:37:47;;;;;;;23.97;17.47;;;;;;;10.33;66.63;103260.69;6296256;28;20236;-51
2021/10/09 06:45:05;;;;;;;20.07;15.90;;;;;;;10.20;66.08;103264.56;6315068;28;20211;-51
2021/10/09 06:59:30;;;;;;;18.50;15.53;;;;;;;10.64;64.52;103285.03;6294979;28;20227;-53
2021/10/09 07:02:51;;;;;;;17.43;13.77;;;;;;;10.53;64.37;103281.25;6300027;28;20258;-49
2021/10/09 07:06:16;;;;;;;16.23;14.57;;;;;;;10.72;63.85;103278.34;6300028;28;20207;-50
2021/10/09 07:09:56;;;;;;;17.50;15.07;;;;;;;10.93;63.02;103282.41;6298994;28;20222;-52
2021/10/09 07:13:24;;;;;;;20.73;15.37;;;;;;;10.88;62.78;103289.22;6299478;28;20417;-52
2021/10/09 07:16:45;;;;;;;18.23;15.77;;;;;;;10.95;61.99;103292.06;6301313;28;20234;-51
2021/10/09 07:20:08;;;;;;;19.27;16.60;;;;;;;11.05;62.03;103295.81;6312740;28;20207;-52
2021/10/09 07:23:32;;;;;;;18.53;14.87;;;;;;;11.08;62.00;103295.88;6312980;28;20264;-49
2021/10/09 07:26:54;;;;;;;17.50;13.60;;;;;;;11.27;61.39;103299.03;6295257;28;20246;-50
2021/10/09 07:30:16;;;;;;;16.87;15.13;;;;;;;11.20;61.32;103295.34;6314413;28;20211;-53
2021/10/09 07:33:36;;;;;;;24.23;15.27;;;;;;;11.34;61.29;103299.22;6317919;28;20227;-48
2021/10/09 07:36:57;;;;;;;22.73;16.23;;;;;;;11.59;60.32;103300.78;6316919;28;20409;-51
2021/10/09 07:40:20;;;;;;;20.27;14.37;;;;;;;11.41;60.38;103308.97;6322201;28;20639;-51
2021/10/09 07:43:42;;;;;;;19.20;14.57;;;;;;;11.73;59.67;103305.44;6306573;28;20226;-51
2021/10/09 07:47:03;;;;;;;17.90;13.50;;;;;;;11.84;59.07;103311.81;6317320;28;20245;-50
2021/10/09 07:50:24;;;;;;;17.90;14.83;;;;;;;11.80;59.40;103316.09;6318449;28;20199;-52
2021/10/09 07:53:45;;;;;;;16.40;14.13;;;;;;;11.77;58.90;103312.53;6318736;28;20227;-50
2021/10/09 07:57:07;;;;;;;18.47;16.43;;;;;;;11.88;58.70;103313.66;6313637;28;20575;-52
2021/10/09 08:00:28;;;;;;;17.50;15.00;;;;;;;12.02;58.02;103311.47;6315218;28;20190;-52
2021/10/09 08:03:51;;;;;;;15.73;14.13;;;;;;;11.96;58.27;103309.56;6315770;28;20327;-50
2021/10/09 08:07:12;;;;;;;14.03;12.67;;;;;;;12.39;57.14;103305.38;6317089;28;20321;-51
2021/10/09 08:10:33;;;;;;;16.80;13.30;;;;;;;12.16;57.56;103303.97;6313812;28;20529;-51
2021/10/09 08:13:55;;;;;;;20.20;16.50;;;;;;;12.28;57.47;103301.63;6313443;28;20608;-46
2021/10/09 08:17:16;;;;;;;18.70;13.50;;;;;;;12.19;57.42;103301.41;6317283;28;20223;-53
2021/10/09 08:20:39;;;;;;;15.90;13.20;;;;;;;12.18;56.65;103297.91;6320641;28;20199;-52
2021/10/09 08:24:07;;;;;;;19.47;14.50;;;;;;;12.30;56.41;103299.06;6312730;28;20287;-48
2021/10/09 08:27:45;;;;;;;20.50;15.00;;;;;;;12.23;56.93;103299.75;6314257;28;20230;-51
2021/10/09 08:38:47;;;;;;;19.83;11.37;;;;;;;13.94;59.09;103298.84;6315444;28;20639;-52
2021/10/09 08:42:09;;;;;;;15.67;11.30;;;;;;;14.28;56.19;103286.25;6312341;28;20242;-52
2021/10/09 08:45:31;;;;;;;17.70;12.47;;;;;;;14.22;55.27;103287.06;6300481;28;20631;-49
2021/10/09 08:48:53;;;;;;;15.43;12.87;;;;;;;13.62;51.78;103295.69;6307284;28;20491;-52
2021/10/09 08:52:20;;;;;;;18.77;12.67;;;;;;;13.08;52.64;103292.00;6312645;28;20310;-51
2021/10/09 08:55:47;;;;;;;17.23;11.77;;;;;;;13.47;52.16;103298.88;6316343;28;20199;-48
2021/10/09 08:59:12;;;;;;;20.43;14.73;;;;;;;13.79;51.80;103294.22;6314161;28;20279;-53
2021/10/09 09:02:36;;;;;;;17.37;11.60;;;;;;;14.01;51.10;103291.97;6308993;28;20249;-52
2021/10/09 09:06:06;;;;;;;11.97;10.43;;;;;;;14.03;50.07;103287.63;6319276;28;20310;-52
2021/10/09 09:31:49;;;;;;;14.47;9.70;;;;;;;15.18;42.85;103278.72;6306810;28;20218;-50
2021/10/09 09:35:26;;;;;;;17.67;8.30;;;;;;;14.85;42.37;103274.84;6312051;28;20246;-49
2021/10/09 09:39:07;;;;;;;12.40;8.30;;;;;;;15.19;42.43;103264.72;6311606;28;20223;-53
2021/10/09 09:42:29;;;;;;;14.47;9.73;;;;;;;-146.32;100.00;58893.91;6311660;28;20214;-50
2021/10/09 09:45:51;;;;;;;10.33;8.20;;;;;;;19.42;34.08;103247.03;6293635;28;20207;-54
2021/10/09 09:49:12;;;;;;;13.27;7.70;;;;;;;21.92;29.73;103238.59;6314656;28;20214;-51
2021/10/09 09:52:36;;;;;;;9.45;7.70;;;;;;;23.10;27.62;103236.16;6310725;28;20506;-50
2021/10/09 09:55:57;;;;;;;12.63;7.07;;;;;;;24.59;24.25;103241.16;6308643;28;20199;-50
2021/10/09 09:59:22;;;;;;;11.88;7.60;;;;;;;25.33;22.42;103245.91;6312037;28;20219;-51
2021/10/09 10:02:45;;;;;;;10.32;6.10;;;;;;;24.66;22.30;103229.34;6314252;28;20222;-51
2021/10/09 10:06:06;;;;;;;9.98;7.07;;;;;;;25.10;21.34;103237.75;6312269;28;20203;-50
2021/10/09 10:09:28;;;;;;;9.50;5.70;;;;;;;24.05;23.28;103232.88;6310601;28;20619;-54
2021/10/09 10:12:55;;;;;;;8.10;6.78;;;;;;;24.80;21.48;103234.28;6318328;28;21699;-47
2021/10/09 10:16:18;;;;;;;9.63;7.22;;;;;;;23.32;23.78;103235.63;6304249;28;20250;-54
2021/10/09 10:20:00;;;;;;;8.40;6.35;;;;;;;25.41;21.35;103234.13;6312447;28;20259;-51
2021/10/09 10:23:36;;;;;;;7.55;6.00;;;;;;;25.45;21.97;103235.75;6313799;28;20530;-50
2021/10/09 10:27:33;;;;;;;12.00;6.60;;;;;;;28.59;19.03;103226.69;6314825;28;20234;-53
2021/10/09 10:31:04;;;;;;;17.42;7.25;;;;;;;29.80;17.99;103226.97;6311856;28;20195;-54
2021/10/09 10:34:28;;;;;;;10.38;5.68;;;;;;;28.69;17.06;103229.78;6298234;28;20793;-54
2021/10/09 10:37:48;;;;;;;6.10;4.88;;;;;;;28.25;17.36;103222.88;6313242;28;20226;-54
2021/10/09 10:41:12;;;;;;;6.97;6.05;;;;;;;30.13;17.71;103224.28;6317695;28;20281;-54
2021/10/09 10:44:58;;;;;;;5.80;5.20;;;;;;;28.97;17.07;103223.09;6321479;28;20187;-55
2021/10/09 10:48:44;;;;;;;10.25;6.25;;;;;;;28.97;18.24;103215.06;6319197;28;20655;-49
2021/10/09 10:52:13;;;;;;;11.77;5.50;;;;;;;29.07;16.47;103221.69;6312472;28;20219;-53
2021/10/09 10:56:04;;;;;;;7.03;4.47;;;;;;;26.84;18.25;103219.09;6319218;28;20198;-52
2021/10/09 10:59:29;;;;;;;6.68;5.00;;;;;;;23.74;21.12;103220.38;6312361;28;20306;-51
2021/10/09 11:02:50;;;;;;;8.07;5.53;;;;;;;24.31;20.87;103225.94;6318890;28;20218;-50
2021/10/09 11:06:11;;;;;;;7.63;5.05;;;;;;;26.95;18.46;103217.78;6319197;28;20218;-52
2021/10/09 11:09:36;;;;;;;6.35;4.97;;;;;;;26.87;18.33;103224.31;6317861;28;20211;-52
2021/10/09 11:12:57;;;;;;;6.65;5.32;;;;;;;23.98;20.81;103223.31;6313608;28;20227;-51
2021/10/09 11:16:18;;;;;;;6.20;5.50;;;;;;;28.71;17.40;103219.84;6319643;28;20238;-52
2021/10/09 11:19:45;;;;;;;12.18;6.47;;;;;;;27.94;17.18;103218.06;6307278;28;20216;-51
2021/10/09 11:23:08;;;;;;;7.32;5.70;;;;;;;28.69;16.82;103216.38;6314845;28;20242;-52
2021/10/09 11:26:30;;;;;;;6.22;5.47;;;;;;;28.59;17.03;103207.91;6314814;28;20638;-54
2021/10/09 11:30:09;;;;;;;8.23;5.07;;;;;;;29.98;16.26;103209.00;6308291;28;20203;-47
2021/10/09 11:33:29;;;;;;;7.18;5.90;;;;;;;27.35;18.61;103218.84;6315528;28;20612;-55
2021/10/09 11:36:53;;;;;;;8.10;6.70;;;;;;;29.73;17.10;103214.81;6316580;28;20222;-53
2021/10/09 11:40:14;;;;;;;10.43;5.72;;;;;;;27.46;18.14;103206.75;6315260;28;20195;-51
2021/10/09 11:43:45;;;;;;;10.45;5.88;;;;;;;27.76;18.61;103205.47;6309736;28;20535;-54
2021/10/09 11:47:31;;;;;;;7.85;6.30;;;;;;;26.03;20.13;103198.16;6317415;28;20512;-52
2021/10/09 11:54:34;;;;;;;9.90;5.90;;;;;;;26.20;19.87;103200.22;6316731;28;20226;-52
2021/10/09 11:57:56;;;;;;;8.50;6.03;;;;;;;25.65;20.72;103195.94;6314893;28;20226;-55
2021/10/09 12:01:30;;;;;;;6.68;5.78;;;;;;;27.28;19.58;103205.72;6311142;28;20327;-51
2021/10/09 12:04:58;;;;;;;9.15;5.97;;;;;;;28.56;17.47;103196.50;6317532;28;20561;-54
2021/10/09 12:08:23;;;;;;;8.32;5.55;;;;;;;29.12;17.56;103197.31;6313422;28;20225;-54
2021/10/09 12:11:44;;;;;;;9.20;6.75;;;;;;;30.62;16.32;103183.06;6308306;28;20251;-53
2021/10/09 12:15:25;;;;;;;10.02;5.78;;;;;;;31.13;15.53;103186.34;6314058;28;20187;-52
2021/10/09 12:18:54;;;;;;;9.15;7.50;;;;;;;30.96;15.85;103179.31;6312258;28;20847;-51
2021/10/09 12:22:15;;;;;;;7.45;6.68;;;;;;;31.44;15.50;103183.66;6307534;28;20287;-53
2021/10/09 12:25:36;;;;;;;11.65;6.05;;;;;;;28.03;17.72;103180.16;6317005;28;20223;-51
2021/10/09 12:29:10;;;;;;;9.18;7.07;;;;;;;30.80;16.32;103171.22;6315095;28;20346;-52
2021/10/09 12:32:38;;;;;;;7.63;4.63;;;;;;;28.43;17.30;103175.59;6315167;28;20329;-51
2021/10/09 12:36:26;;;;;;;6.32;5.40;;;;;;;27.37;18.47;103174.16;6316466;28;20211;-52
2021/10/09 12:39:49;;;;;;;10.35;5.85;;;;;;;28.10;18.16;103169.16;6309640;28;20253;-49
2021/10/09 12:43:12;;;;;;;9.27;5.20;;;;;;;26.33;19.38;103164.09;6313021;28;20231;-50
2021/10/09 12:46:33;;;;;;;9.48;6.97;;;;;;;26.80;19.22;103157.81;6316443;28;20857;-52
2021/10/09 12:49:54;;;;;;;10.13;5.60;;;;;;;26.74;19.59;103145.56;6312472;28;20669;-53
2021/10/09 12:53:16;;;;;;;10.57;6.47;;;;;;;27.47;19.67;103154.09;6308793;28;20587;-52
2021/10/09 12:56:38;;;;;;;8.80;7.15;;;;;;;27.21;20.98;103137.34;6295417;28;20262;-53
2021/10/09 13:00:00;;;;;;;8.98;5.93;;;;;;;26.22;21.96;103151.16;6305626;28;20570;-53
2021/10/09 13:03:21;;;;;;;10.43;6.97;;;;;;;24.46;23.51;103145.56;6310686;28;20227;-52
2021/10/09 13:06:42;;;;;;;9.80;5.60;;;;;;;23.56;25.28;103146.41;6305461;28;20238;-51
2021/10/09 13:10:06;;;;;;;5.20;4.70;;;;;;;23.82;25.13;103143.03;6307174;28;20235;-50
2021/10/09 13:13:27;;;;;;;11.32;6.15;;;;;;;23.46;23.71;103137.81;6305957;28;20242;-52
2021/10/09 13:16:48;;;;;;;10.57;5.40;;;;;;;23.46;23.71;103137.81;6305854;28;20230;-54
2021/10/09 13:20:10;;;;;;;7.72;6.20;;;;;;;26.60;20.69;103130.09;6314802;28;20498;-52
2021/10/09 13:23:32;;;;;;;6.38;5.38;;;;;;;-146.32;0.00;47074.56;6303323;28;20235;-50
2021/10/09 13:26:55;;;;;;;6.97;5.80;;;;;;;26.60;18.94;103130.09;6310636;28;20616;-52
2021/10/09 13:30:16;;;;;;;8.45;5.93;;;;;;;26.60;20.69;103130.09;6309846;28;20599;-51
2021/10/09 13:33:37;;;;;;;8.85;5.28;;;;;;;29.05;17.58;103117.16;6307991;28;20622;-52
2021/10/09 13:36:58;;;;;;;6.82;5.15;;;;;;;27.11;19.32;103114.63;6306107;28;20242;-53
2021/10/09 13:40:19;;;;;;;7.72;6.15;;;;;;;-146.32;100.00;58893.91;6310458;28;20218;-49
2021/10/09 13:43:41;;;;;;;11.13;4.70;;;;;;;-146.32;100.00;58893.91;6306307;28;20611;-53
2021/10/09 13:47:02;;;;;;;6.07;4.65;;;;;;;-146.32;100.00;58893.91;6311813;28;20233;-51
2021/10/09 13:50:25;;;;;;;11.18;5.10;;;;;;;-146.32;100.00;58893.91;6314735;28;20198;-54
2021/10/09 13:53:46;;;;;;;9.95;5.78;;;;;;;27.11;19.32;103114.63;6312753;28;20234;-55
2021/10/09 13:57:07;;;;;;;6.80;5.20;;;;;;;26.79;17.76;103106.13;6306905;28;20249;-53
2021/10/09 14:00:31;;;;;;;13.00;6.10;;;;;;;28.57;17.08;103110.63;6312480;28;20843;-52
2021/10/09 14:03:52;;;;;;;9.77;6.65;;;;;;;30.02;15.14;103103.09;6314262;28;20231;-54
2021/10/09 14:07:13;;;;;;;5.70;5.15;;;;;;;27.66;17.39;103106.81;6315422;28;20246;-52
2021/10/09 14:10:34;;;;;;;6.28;5.13;;;;;;;28.00;16.71;103105.31;6314997;28;20219;-53
2021/10/09 14:13:55;;;;;;;7.97;5.75;;;;;;;27.95;17.38;103096.63;6309166;28;20226;-52
2021/10/09 14:17:18;;;;;;;7.75;5.60;;;;;;;27.68;17.33;103104.09;6305595;28;22188;-53
2021/10/09 14:20:38;;;;;;;5.70;4.72;;;;;;;27.19;18.10;103096.44;6316838;28;20738;-49
2021/10/09 14:23:59;;;;;;;7.57;5.80;;;;;;;27.48;19.16;103091.63;6312429;28;20238;-50
2021/10/09 14:27:22;;;;;;;8.05;6.80;;;;;;;26.31;18.84;103091.19;6310272;28;20250;-52
2021/10/09 14:30:48;;;;;;;6.55;5.45;;;;;;;26.23;19.33;103087.91;6317960;28;20207;-48
2021/10/09 14:34:11;;;;;;;9.07;6.20;;;;;;;26.35;19.15;103086.56;6317116;28;20309;-51
2021/10/09 14:37:32;;;;;;;7.85;4.72;;;;;;;25.67;20.35;103079.34;6315319;28;20219;-49
2021/10/09 14:40:53;;;;;;;12.05;5.30;;;;;;;24.92;21.30;103080.19;6315012;28;20203;-52
2021/10/09 14:44:13;;;;;;;6.82;5.45;;;;;;;25.30;21.71;103075.34;6314514;28;20210;-53
2021/10/09 14:47:39;;;;;;;9.57;6.05;;;;;;;24.96;22.06;103084.47;6314509;28;20226;-52
2021/10/09 14:51:17;;;;;;;6.40;5.70;;;;;;;24.96;22.06;103084.47;6309817;28;20713;-50
2021/10/09 15:16:38;;;;;;;5.43;4.18;;;;;;;;;;6260970;28;20204;-52
2021/10/09 15:19:59;;;;;;;7.15;5.35;;;;;;;;;;6257136;28;20199;-52
2021/10/09 15:23:20;;;;;;;5.55;4.68;;;;;;;;;;6264655;28;20231;-52
2021/10/09 15:26:41;;;;;;;5.57;4.15;;;;;;;;;;6261646;28;20352;-51
2021/10/09 15:30:01;;;;;;;7.90;4.53;;;;;;;;;;6260670;28;20204;-51
2021/10/09 15:33:23;;;;;;;5.95;4.28;;;;;;;;;;6260302;28;20229;-52
2021/10/09 15:36:44;;;;;;;7.03;4.72;;;;;;;;;;6256057;28;20248;-52
2021/10/09 15:40:05;;;;;;;6.40;5.25;;;;;;;;;;6260003;28;20469;-50
2021/10/09 15:43:25;;;;;;;8.80;5.60;;;;;;;;;;6258599;28;20466;-51
2021/10/09 15:46:46;;;;;;;7.22;5.05;;;;;;;;;;6257045;28;20224;-52
2021/10/09 15:50:08;;;;;;;6.38;4.95;;;;;;;;;;6256153;28;20236;-53
2021/10/09 15:53:28;;;;;;;7.15;5.07;;;;;;;;;;6254971;28;20235;-51
2021/10/09 15:56:49;;;;;;;6.20;4.18;;;;;;;;;;6257534;28;20228;-49
2021/10/09 16:00:11;;;;;;;6.15;4.90;;;;;;;;;;6246398;28;20443;-54
2021/10/09 16:03:31;;;;;;;6.53;5.85;;;;;;;;;;6255807;28;20235;-53
2021/10/09 16:06:55;;;;;;;6.90;5.93;;;;;;;;;;6253191;28;20220;-51
2021/10/09 16:10:16;;;;;;;8.38;6.20;;;;;;;;;;6238951;28;20209;-50
2021/10/09 16:13:37;;;;;;;9.77;7.10;;;;;;;;;;6240271;28;20661;-53
2021/10/09 16:16:57;;;;;;;11.52;7.25;;;;;;;;;;6229526;28;20328;-52
2021/10/09 16:20:17;;;;;;;8.82;6.65;;;;;;;;;;6223088;28;20631;-51
2021/10/09 16:23:39;;;;;;;8.88;6.75;;;;;;;;;;6231039;28;21365;-53
2021/10/09 16:27:00;;;;;;;9.25;6.35;;;;;;;;;;6222440;28;20650;-52
2021/10/09 16:30:20;;;;;;;9.18;6.95;;;;;;;;;;6224131;28;20200;-51
2021/10/09 16:33:41;;;;;;;6.50;5.25;;;;;;;;;;6223894;28;20225;-53
2021/10/09 16:37:02;;;;;;;9.33;6.10;;;;;;;;;;6228003;28;20240;-51
2021/10/09 16:40:24;;;;;;;10.03;7.40;;;;;;;;;;6239243;28;20205;-50
2021/10/09 16:43:44;;;;;;;7.23;6.50;;;;;;;;;;6218010;28;20810;-54
2021/10/09 16:47:04;;;;;;;8.70;7.37;;;;;;;;;;6222351;28;20328;-48
2021/10/09 16:50:25;;;;;;;10.60;7.60;;;;;;;;;;6241317;28;20229;-51
2021/10/09 16:53:46;;;;;;;10.63;7.33;;;;;;;;;;6242769;28;20220;-54
2021/10/09 16:57:08;;;;;;;9.70;7.47;;;;;;;;;;6238682;28;20233;-53
2021/10/09 17:00:28;;;;;;;11.00;8.60;;;;;;;;;;6224868;28;20233;-49
2021/10/09 17:03:49;;;;;;;10.20;8.13;;;;;;;;;;6234304;28;20702;-51
2021/10/09 17:07:09;;;;;;;12.63;9.80;;;;;;;;;;6234473;28;20676;-50
2021/10/09 17:10:30;;;;;;;9.83;8.37;;;;;;;;;;6237945;28;20602;-47
2021/10/09 17:13:52;;;;;;;12.53;9.43;;;;;;;;;;6236976;28;20244;-53
2021/10/09 17:17:13;;;;;;;23.47;20.53;;;;;;;;;;6238501;28;20232;-50
2021/10/09 17:20:33;;;;;;;19.30;17.43;;;;;;;;;;6239344;28;20276;-52
2021/10/09 17:23:54;;;;;;;17.40;15.67;;;;;;;;;;6240827;28;20504;-50
2021/10/09 17:27:14;;;;;;;17.93;13.30;;;;;;;;;;6233808;28;20228;-52
2021/10/09 17:30:36;;;;;;;14.43;12.50;;;;;;;;;;6240596;28;20220;-48
2021/10/09 17:33:56;;;;;;;10.87;9.43;;;;;;;;;;6242896;28;20613;-52
2021/10/09 17:37:17;;;;;;;10.83;8.43;;;;;;;;;;6236353;28;20240;-52
2021/10/09 17:40:38;;;;;;;13.60;9.67;;;;;;;;;;6243699;28;20205;-52
2021/10/09 17:43:59;;;;;;;14.00;10.63;;;;;;;;;;6236460;28;20614;-50
2021/10/09 17:47:20;;;;;;;9.50;8.23;;;;;;;;;;6237955;28;20256;-53
2021/10/09 17:50:45;;;;;;;10.33;8.60;;;;;;;;;;6240214;28;20506;-52
2021/10/09 17:54:05;;;;;;;12.37;8.63;;;;;;;;;;6238286;28;20233;-51
2021/10/09 17:57:26;;;;;;;11.20;9.40;;;;;;;;;;6241113;28;20232;-50
2021/10/09 18:00:48;;;;;;;16.40;11.20;;;;;;;;;;6240042;28;20563;-52
2021/10/09 18:04:10;;;;;;;10.77;9.40;;;;;;;;;;6229223;28;20324;-51
2021/10/09 18:07:32;;;;;;;12.00;10.73;;;;;;;;;;6239199;28;20665;-52
2021/10/09 18:10:53;;;;;;;13.93;10.07;;;;;;;;;;6236774;28;20242;-54
2021/10/09 18:14:14;;;;;;;14.60;10.90;;;;;;;;;;6240404;28;20662;-55